Time;durP1;ratioP1;P1;durP2;ratioP2;P2;SDS_P1;SDS_P2;PMS_P1;PMS_P2;Temp;Humidity;BMP_temperature;BMP_pressure;BME280_temperature;BME280_humidity;BME280_pressure;Samples;Min_cycle;Max_cycle;Signal;HPM_P1;HPM_P2
2022/06/02 00:01:40;;;;;;;4.93;3.33;;;10.10;99.90;;;;;;5006883;28;20045;-40
2022/06/02 00:04:11;;;;;;;5.68;4.10;;;10.00;99.90;;;;;;5006003;28;20099;-39
2022/06/02 00:06:51;;;;;;;5.03;3.25;;;10.00;99.90;;;;;;5007353;28;20175;-39
2022/06/02 00:09:33;;;;;;;4.90;3.10;;;10.00;99.90;;;;;;5008954;28;20129;-40
2022/06/02 00:12:05;;;;;;;4.05;2.58;;;10.00;99.90;;;;;;5008710;28;20050;-40
2022/06/02 00:14:59;;;;;;;4.47;2.40;;;9.90;99.90;;;;;;5009620;28;20057;-40
2022/06/02 00:17:42;;;;;;;3.38;2.00;;;9.90;99.90;;;;;;5003805;28;20522;-41
2022/06/02 00:20:39;;;;;;;3.58;1.92;;;9.90;99.90;;;;;;5005670;28;20134;-39
2022/06/02 00:23:17;;;;;;;3.53;2.17;;;9.90;99.90;;;;;;5003060;28;20138;-39
2022/06/02 00:26:14;;;;;;;3.58;2.47;;;9.80;99.90;;;;;;5004773;28;20042;-42
2022/06/02 00:28:49;;;;;;;4.78;2.60;;;9.80;99.90;;;;;;4973787;28;20046;-40
2022/06/02 00:31:33;;;;;;;3.85;2.70;;;9.80;99.90;;;;;;5006963;28;20038;-40
2022/06/02 00:34:23;;;;;;;4.38;3.08;;;9.80;99.90;;;;;;5004944;28;20041;-39
2022/06/02 00:37:12;;;;;;;4.15;2.85;;;9.70;99.90;;;;;;4999275;28;20050;-40
2022/06/02 00:39:39;;;;;;;4.85;3.28;;;9.70;99.90;;;;;;5008969;28;20037;-40
2022/06/02 00:42:23;;;;;;;4.68;3.00;;;9.60;99.90;;;;;;5006729;28;20042;-40
2022/06/02 00:45:01;;;;;;;4.65;3.30;;;9.60;99.90;;;;;;5005052;28;20037;-40
2022/06/02 00:47:45;;;;;;;4.75;2.97;;;9.60;99.90;;;;;;5004729;28;20049;-40
2022/06/02 00:50:33;;;;;;;4.20;2.72;;;9.50;99.90;;;;;;5006291;28;20084;-40
2022/06/02 00:53:13;;;;;;;4.55;3.05;;;9.50;99.90;;;;;;5009133;28;20042;-39
2022/06/02 00:59:32;;;;;;;4.20;2.90;;;9.50;99.90;;;;;;5005065;28;20070;-39
2022/06/02 01:01:57;;;;;;;4.70;3.28;;;9.50;99.90;;;;;;5002750;28;20117;-39
2022/06/02 01:04:23;;;;;;;5.15;2.75;;;9.40;99.90;;;;;;5009069;28;20113;-39
2022/06/02 01:07:01;;;;;;;3.70;2.45;;;9.40;99.90;;;;;;5006952;28;20053;-40
2022/06/02 01:09:49;;;;;;;3.55;2.35;;;9.40;99.90;;;;;;5009216;28;20151;-39
2022/06/02 01:12:39;;;;;;;3.50;2.53;;;9.30;99.90;;;;;;5002398;28;20072;-40
2022/06/02 01:15:38;;;;;;;3.28;2.20;;;9.30;99.90;;;;;;5012093;28;20069;-40
2022/06/02 01:18:29;;;;;;;3.80;2.30;;;9.30;99.90;;;;;;5012109;28;20045;-39
2022/06/02 01:21:30;;;;;;;6.88;2.17;;;9.30;99.90;;;;;;5005645;28;20038;-39
2022/06/02 01:24:06;;;;;;;11.23;2.55;;;9.20;99.90;;;;;;5012618;28;20185;-40
2022/06/02 01:26:56;;;;;;;3.20;1.85;;;9.10;99.90;;;;;;5010797;28;20045;-40
2022/06/02 01:29:37;;;;;;;3.13;2.17;;;9.10;99.90;;;;;;5011439;28;20128;-39
2022/06/02 01:32:10;;;;;;;76.65;5.90;;;9.10;99.90;;;;;;5004296;28;20213;-40
2022/06/02 01:34:48;;;;;;;18.67;3.15;;;9.10;99.90;;;;;;5008883;28;20045;-40
2022/06/02 01:37:17;;;;;;;9.10;3.10;;;9.00;99.90;;;;;;5011879;28;20050;-39
2022/06/02 01:40:19;;;;;;;13.82;3.70;;;9.00;99.90;;;;;;5011285;28;20038;-39
2022/06/02 01:42:56;;;;;;;5.05;3.42;;;9.00;99.90;;;;;;5006493;28;20371;-39
2022/06/02 01:45:46;;;;;;;5.80;3.30;;;9.00;99.90;;;;;;5009987;28;20129;-39
2022/06/02 01:48:40;;;;;;;4.07;2.70;;;8.90;99.90;;;;;;5011046;28;20092;-39
2022/06/02 01:51:43;;;;;;;3.90;2.58;;;8.90;99.90;;;;;;5009116;28;20123;-41
2022/06/02 01:54:23;;;;;;;3.97;2.67;;;8.90;99.90;;;;;;5008024;28;20034;-39
2022/06/02 01:56:54;;;;;;;4.22;2.70;;;8.80;99.90;;;;;;5011352;28;20102;-40
2022/06/02 01:59:54;;;;;;;5.13;3.13;;;8.80;99.90;;;;;;5013297;28;20550;-39
2022/06/02 02:02:46;;;;;;;5.28;3.53;;;8.80;99.90;;;;;;5008795;28;20139;-39
2022/06/02 02:06:05;;;;;;;5.05;3.42;;;8.80;99.90;;;;;;5008202;28;20048;-39
2022/06/02 02:08:51;;;;;;;6.32;4.30;;;8.70;99.90;;;;;;4977465;28;20454;-40
2022/06/02 02:11:27;;;;;;;6.82;4.00;;;8.70;99.90;;;;;;5011195;28;20219;-40
2022/06/02 02:14:03;;;;;;;6.68;3.60;;;8.60;99.90;;;;;;5002562;28;20052;-40
2022/06/02 02:16:31;;;;;;;7.00;3.97;;;8.70;99.90;;;;;;5010076;28;20073;-41
2022/06/02 02:19:05;;;;;;;9.13;4.40;;;8.60;99.90;;;;;;5006413;28;20052;-40
2022/06/02 02:22:04;;;;;;;6.72;4.20;;;8.70;99.90;;;;;;5008691;28;20491;-39
2022/06/02 02:24:48;;;;;;;7.32;4.47;;;8.60;99.90;;;;;;5008189;28;20440;-40
2022/06/02 02:28:02;;;;;;;5.57;3.72;;;8.60;99.90;;;;;;5008594;28;20128;-40
2022/06/02 02:30:29;;;;;;;7.00;4.38;;;8.50;99.90;;;;;;5007714;28;20072;-41
2022/06/02 02:33:07;;;;;;;7.00;4.35;;;8.50;99.90;;;;;;5003816;28;20458;-39
2022/06/02 02:35:56;;;;;;;5.82;3.95;;;8.50;99.90;;;;;;5007690;28;20054;-40
2022/06/02 02:38:33;;;;;;;12.38;4.60;;;8.50;99.90;;;;;;5007817;28;20435;-40
2022/06/02 02:41:03;;;;;;;56.90;6.43;;;8.40;99.90;;;;;;5010979;28;20095;-39
2022/06/02 02:43:45;;;;;;;86.65;7.50;;;8.40;99.90;;;;;;5006932;28;20042;-40
2022/06/02 02:46:43;;;;;;;142.18;11.18;;;8.40;99.90;;;;;;5010083;28;20038;-39
2022/06/02 02:49:13;;;;;;;105.93;8.73;;;8.30;99.90;;;;;;4972581;28;20526;-41
2022/06/02 02:52:05;;;;;;;86.15;8.25;;;8.30;99.90;;;;;;5009089;28;20041;-39
2022/06/02 02:54:48;;;;;;;12.50;2.72;;;8.30;99.90;;;;;;5011105;28;20451;-40
2022/06/02 02:57:26;;;;;;;3.75;2.13;;;8.20;99.90;;;;;;5008075;28;20060;-42
2022/06/02 03:00:12;;;;;;;3.53;2.00;;;8.20;99.90;;;;;;5009749;28;20428;-39
2022/06/02 03:02:54;;;;;;;4.15;2.80;;;8.20;99.90;;;;;;5009468;28;20133;-40
2022/06/02 03:05:33;;;;;;;4.55;3.20;;;8.20;99.90;;;;;;5009702;28;20510;-40
2022/06/02 03:08:17;;;;;;;4.85;2.90;;;8.20;99.90;;;;;;5010618;28;20553;-40
2022/06/02 03:10:47;;;;;;;5.93;3.80;;;8.20;99.90;;;;;;5007650;28;20502;-41
2022/06/02 03:13:38;;;;;;;5.75;3.40;;;8.20;99.90;;;;;;5006419;28;20089;-41
2022/06/02 03:16:10;;;;;;;5.10;3.00;;;8.20;99.90;;;;;;5007684;28;20041;-39
2022/06/02 03:19:30;;;;;;;4.95;2.65;;;8.20;99.90;;;;;;5007104;28;20037;-39
2022/06/02 03:22:07;;;;;;;2.83;1.73;;;8.20;99.90;;;;;;4951394;29;20044;-39
2022/06/02 03:25:04;;;;;;;3.20;1.88;;;8.30;99.90;;;;;;5001261;28;20038;-40
2022/06/02 03:27:54;;;;;;;2.60;1.60;;;8.30;99.90;;;;;;5010592;28;20042;-41
2022/06/02 03:30:30;;;;;;;3.88;2.15;;;8.30;99.90;;;;;;5009104;28;20474;-41
2022/06/02 03:33:06;;;;;;;3.03;1.95;;;8.40;99.90;;;;;;5005739;28;20061;-40
2022/06/02 03:35:51;;;;;;;2.90;1.88;;;8.40;99.90;;;;;;5007286;28;20177;-40
2022/06/02 03:38:23;;;;;;;23.63;2.63;;;8.40;99.90;;;;;;5005813;28;20061;-40
2022/06/02 03:41:46;;;;;;;55.72;3.55;;;8.30;99.90;;;;;;5009943;28;20478;-39
2022/06/02 03:44:31;;;;;;;31.30;4.53;;;8.10;99.90;;;;;;4930826;29;20043;-40
2022/06/02 03:47:09;;;;;;;32.33;4.25;;;8.00;99.90;;;;;;4931746;29;20509;-39
2022/06/02 03:50:02;;;;;;;31.17;5.70;;;7.90;99.90;;;;;;4979674;28;20092;-43
2022/06/02 03:52:57;;;;;;;10.10;3.28;;;7.90;99.90;;;;;;5006516;28;20517;-40
2022/06/02 03:55:57;;;;;;;6.65;3.40;;;7.90;99.90;;;;;;5008347;28;20103;-41
2022/06/02 03:58:47;;;;;;;4.75;2.78;;;7.90;99.90;;;;;;5008018;28;20046;-40
2022/06/02 04:01:19;;;;;;;4.57;2.70;;;7.90;99.90;;;;;;5008196;28;20046;-40
2022/06/02 04:04:13;;;;;;;4.80;2.90;;;7.90;99.90;;;;;;5007910;28;20038;-40
2022/06/02 04:06:45;;;;;;;4.05;2.47;;;8.00;99.90;;;;;;5005774;28;20184;-40
2022/06/02 04:09:46;;;;;;;3.92;2.10;;;8.00;99.90;;;;;;5008028;28;20652;-39
2022/06/02 04:15:25;;;;;;;4.28;2.38;;;7.90;99.90;;;;;;5010950;28;20061;-40
2022/06/02 04:18:11;;;;;;;3.92;2.42;;;7.90;99.90;;;;;;5005188;28;20041;-40
2022/06/02 04:20:37;;;;;;;4.28;2.70;;;8.00;99.90;;;;;;5007218;28;20113;-39
2022/06/02 04:23:24;;;;;;;4.20;2.70;;;8.10;99.90;;;;;;5008078;28;20554;-41
2022/06/02 04:26:18;;;;;;;10.60;3.10;;;8.10;99.90;;;;;;5008846;28;20045;-39
2022/06/02 04:29:05;;;;;;;5.80;3.50;;;8.20;99.90;;;;;;5009350;28;20121;-39
2022/06/02 04:31:40;;;;;;;5.18;3.30;;;8.30;99.90;;;;;;5007973;28;20061;-39
2022/06/02 04:34:31;;;;;;;5.40;3.55;;;8.30;99.90;;;;;;5005444;28;20041;-40
2022/06/02 04:37:38;;;;;;;5.05;3.50;;;8.40;99.90;;;;;;5007212;28;20795;-40
2022/06/02 04:40:22;;;;;;;7.35;4.45;;;8.40;99.90;;;;;;5009354;28;20095;-40
2022/06/02 04:43:06;;;;;;;6.93;3.78;;;8.50;99.90;;;;;;5002668;28;20125;-40
2022/06/02 04:45:52;;;;;;;7.80;4.20;;;8.60;99.90;;;;;;5001225;28;20467;-40
2022/06/02 04:48:27;;;;;;;6.18;3.70;;;8.60;99.90;;;;;;5010869;28;20452;-40
2022/06/02 04:51:05;;;;;;;7.88;4.85;;;8.70;99.90;;;;;;5007793;28;20038;-39
2022/06/02 04:53:37;;;;;;;7.80;5.05;;;8.80;99.90;;;;;;5009546;28;20033;-40
2022/06/02 04:56:15;;;;;;;7.93;4.97;;;8.90;99.90;;;;;;5007310;28;20092;-40
2022/06/02 04:59:07;;;;;;;10.13;6.32;;;9.00;99.90;;;;;;5008808;28;20159;-42
2022/06/02 05:02:00;;;;;;;9.70;5.72;;;9.10;99.90;;;;;;4998481;28;20053;-41
2022/06/02 05:04:57;;;;;;;7.50;5.10;;;9.20;99.90;;;;;;4995450;28;20442;-39
2022/06/02 05:07:37;;;;;;;10.27;6.32;;;9.30;99.90;;;;;;5006621;28;20046;-39
2022/06/02 05:10:20;;;;;;;9.40;5.55;;;9.40;99.90;;;;;;5008540;28;20042;-39
2022/06/02 05:12:49;;;;;;;;;;;9.50;99.90;;;;;;5009358;28;20514;-39
2022/06/02 05:15:46;;;;;;;6.22;4.40;;;9.50;99.90;;;;;;5009328;28;19968;-42
2022/06/02 05:18:39;;;;;;;7.45;4.82;;;9.50;99.90;;;;;;5004385;28;20033;-40
2022/06/02 05:21:11;;;;;;;7.82;4.65;;;9.60;99.90;;;;;;5007645;28;20164;-40
2022/06/02 05:23:45;;;;;;;10.23;5.30;;;9.70;99.90;;;;;;4996938;28;20045;-40
2022/06/02 05:26:14;;;;;;;8.73;4.85;;;9.80;99.90;;;;;;5007045;28;20141;-39
2022/06/02 05:29:09;;;;;;;9.35;6.00;;;9.80;99.90;;;;;;5002824;28;20042;-40
2022/06/02 05:32:08;;;;;;;9.57;6.18;;;9.90;99.90;;;;;;4991040;28;20526;-40
2022/06/02 05:35:13;;;;;;;9.65;6.75;;;10.10;99.90;;;;;;4998090;28;20498;-40
2022/06/02 05:38:11;;;;;;;10.27;6.70;;;10.20;99.90;;;;;;5012945;28;20046;-40
2022/06/02 05:40:40;;;;;;;9.57;6.28;;;10.40;99.90;;;;;;5007408;28;20088;-40
2022/06/02 05:43:26;;;;;;;10.70;7.30;;;10.60;99.90;;;;;;5008691;28;20053;-41
2022/06/02 05:46:10;;;;;;;8.90;5.78;;;10.70;99.90;;;;;;4999204;28;20038;-41
2022/06/02 05:48:55;;;;;;;9.75;6.28;;;10.90;99.90;;;;;;5009133;28;20052;-40
2022/06/02 05:51:42;;;;;;;9.35;5.80;;;11.00;99.90;;;;;;5009722;28;20038;-40
2022/06/02 05:54:45;;;;;;;7.15;4.60;;;11.20;99.90;;;;;;5007750;28;20064;-40
2022/06/02 05:57:28;;;;;;;7.90;5.43;;;11.40;99.90;;;;;;5004970;28;20134;-41
2022/06/02 05:59:56;;;;;;;;;;;11.50;99.90;;;;;;4992518;28;20037;-40
2022/06/02 06:03:00;;;;;;;8.25;4.75;;;11.60;99.90;;;;;;5007444;28;19928;-40
2022/06/02 06:05:39;;;;;;;8.65;4.40;;;11.70;99.90;;;;;;5004992;28;20101;-41
2022/06/02 06:08:36;;;;;;;6.47;4.40;;;11.80;99.90;;;;;;5009868;28;20519;-40
2022/06/02 06:11:19;;;;;;;6.55;4.10;;;11.90;99.90;;;;;;4983605;28;20518;-40
2022/06/02 06:13:59;;;;;;;6.55;4.13;;;12.00;99.90;;;;;;5013319;28;20423;-41
2022/06/02 06:16:44;;;;;;;6.03;3.53;;;12.10;99.90;;;;;;5014149;28;20082;-41
2022/06/02 06:19:40;;;;;;;5.78;3.30;;;12.20;99.90;;;;;;5012937;28;20549;-38
2022/06/02 06:22:21;;;;;;;6.55;3.40;;;12.30;99.90;;;;;;5006798;28;20041;-40
2022/06/02 06:25:02;;;;;;;5.93;2.80;;;12.40;99.90;;;;;;5010238;28;20046;-39
2022/06/02 06:28:25;;;;;;;3.00;2.00;;;12.40;99.90;;;;;;5010310;28;20038;-39
2022/06/02 06:31:00;;;;;;;3.50;1.90;;;12.50;99.90;;;;;;4928085;29;20040;-39
2022/06/02 06:33:52;;;;;;;2.80;1.55;;;12.60;99.90;;;;;;4933527;29;20334;-40
2022/06/02 06:36:38;;;;;;;2.95;1.25;;;12.70;99.90;;;;;;4980937;28;20137;-41
2022/06/02 06:39:20;;;;;;;3.47;1.42;;;12.70;99.90;;;;;;5011367;28;20042;-39
2022/06/02 06:42:14;;;;;;;3.38;1.50;;;12.80;99.90;;;;;;4996795;28;20042;-38
2022/06/02 06:44:47;;;;;;;2.78;1.60;;;12.90;99.90;;;;;;5009729;28;20160;-41
2022/06/02 06:47:19;;;;;;;4.20;1.45;;;12.90;99.90;;;;;;5009481;28;20095;-38
2022/06/02 06:50:07;;;;;;;3.38;2.15;;;13.00;99.90;;;;;;5010080;28;20490;-38
2022/06/02 06:53:01;;;;;;;2.45;1.65;;;13.10;99.90;;;;;;5008666;28;20041;-39
2022/06/02 06:55:45;;;;;;;3.10;1.60;;;13.20;99.90;;;;;;5003721;28;20038;-38
2022/06/02 06:58:26;;;;;;;2.55;1.67;;;13.20;99.90;;;;;;5011913;28;20479;-39
2022/06/02 07:01:15;;;;;;;5.47;1.55;;;13.30;99.90;;;;;;5006667;28;20049;-39
2022/06/02 07:04:11;;;;;;;3.58;1.48;;;13.40;99.90;;;;;;5007320;28;20091;-40
2022/06/02 07:06:52;;;;;;;2.78;1.40;;;13.30;99.90;;;;;;5005760;28;20042;-38
2022/06/02 07:09:31;;;;;;;4.90;1.90;;;13.30;99.90;;;;;;5006560;28;20121;-39
2022/06/02 07:15:09;;;;;;;1.83;0.80;;;13.40;99.90;;;;;;5007525;28;20184;-40
2022/06/02 07:18:01;;;;;;;1.90;0.98;;;13.50;99.90;;;;;;4999982;28;20037;-39
2022/06/02 07:20:35;;;;;;;2.60;0.90;;;13.50;99.90;;;;;;5000093;28;20140;-40
2022/06/02 07:23:21;;;;;;;3.00;1.25;;;13.40;99.90;;;;;;5002649;28;20411;-39
2022/06/02 07:26:11;;;;;;;3.08;1.10;;;13.50;99.90;;;;;;4991713;28;20042;-39
2022/06/02 07:28:53;;;;;;;2.67;1.30;;;13.60;99.90;;;;;;5009209;28;20061;-39
2022/06/02 07:31:35;;;;;;;1.75;0.93;;;13.80;99.90;;;;;;5008690;28;20329;-39
2022/06/02 07:34:34;;;;;;;2.72;0.95;;;14.00;99.90;;;;;;5002567;28;20131;-39
2022/06/02 07:37:11;;;;;;;3.22;0.98;;;14.10;99.90;;;;;;5009707;28;20034;-40
2022/06/02 07:40:33;;;;;;;3.28;1.10;;;14.20;99.90;;;;;;5006574;28;20236;-39
2022/06/02 07:43:05;;;;;;;1.70;1.00;;;14.30;99.90;;;;;;4933581;29;20261;-39
2022/06/02 07:45:35;;;;;;;2.13;0.97;;;14.50;99.90;;;;;;4949974;29;20173;-39
2022/06/02 07:48:07;;;;;;;2.92;1.00;;;14.60;99.90;;;;;;4982966;28;20073;-39
2022/06/02 07:50:35;;;;;;;2.60;1.00;;;14.50;99.90;;;;;;5008089;28;20124;-39
2022/06/02 07:53:07;;;;;;;3.05;0.90;;;14.30;99.90;;;;;;5007909;28;20056;-39
2022/06/02 07:56:01;;;;;;;4.43;1.83;;;14.10;99.90;;;;;;5007561;28;20038;-41
2022/06/02 07:58:38;;;;;;;2.80;0.88;;;14.20;99.90;;;;;;5008850;28;20492;-39
2022/06/02 08:01:32;;;;;;;1.73;0.90;;;14.20;99.90;;;;;;5007263;28;20077;-39
2022/06/02 08:04:32;;;;;;;3.17;1.25;;;14.40;99.90;;;;;;5007132;28;20049;-39
2022/06/02 08:07:06;;;;;;;2.65;0.85;;;14.70;99.90;;;;;;5007372;28;20540;-39
2022/06/02 08:09:44;;;;;;;3.13;1.00;;;14.90;98.00;;;;;;5020755;28;20042;-39
2022/06/02 08:12:19;;;;;;;1.95;1.02;;;14.90;97.90;;;;;;5003710;28;20145;-39
2022/06/02 08:15:03;;;;;;;3.10;0.88;;;14.70;97.20;;;;;;5010622;28;20049;-39
2022/06/02 08:17:34;;;;;;;2.30;0.90;;;14.60;97.30;;;;;;5003396;28;20046;-39
2022/06/02 08:20:39;;;;;;;3.47;0.80;;;14.70;98.60;;;;;;4997120;28;20042;-40
2022/06/02 08:23:05;;;;;;;3.83;0.80;;;14.90;98.60;;;;;;4987986;28;20518;-39
2022/06/02 08:25:42;;;;;;;1.27;0.80;;;15.00;97.10;;;;;;5004951;28;20081;-39
2022/06/02 08:28:29;;;;;;;1.85;0.95;;;15.00;96.90;;;;;;5004171;28;20060;-39
2022/06/02 08:31:07;;;;;;;1.55;0.85;;;15.10;97.50;;;;;;5009025;28;20030;-39
2022/06/02 08:33:41;;;;;;;3.53;0.90;;;15.30;97.00;;;;;;5023363;28;20030;-39
2022/06/02 08:36:07;;;;;;;5.50;1.88;;;15.40;95.70;;;;;;5014283;28;20042;-39
2022/06/02 08:38:57;;;;;;;1.33;0.80;;;15.60;95.70;;;;;;5010629;28;20044;-40
2022/06/02 08:41:51;;;;;;;1.73;0.82;;;15.70;94.70;;;;;;5011086;28;20447;-40
2022/06/02 08:44:48;;;;;;;1.95;0.70;;;15.90;93.10;;;;;;5010803;28;20084;-39
2022/06/02 08:47:37;;;;;;;1.73;0.90;;;15.90;92.70;;;;;;5008969;28;20041;-39
2022/06/02 08:50:13;;;;;;;2.33;0.90;;;15.90;91.60;;;;;;5010236;28;20080;-39
2022/06/02 08:52:57;;;;;;;2.10;0.90;;;15.90;90.70;;;;;;5008228;28;20046;-39
2022/06/02 08:56:00;;;;;;;2.22;0.95;;;15.90;91.00;;;;;;5010394;28;20060;-40
2022/06/02 08:58:26;;;;;;;;;;;16.00;91.40;;;;;;5010542;28;20540;-40
2022/06/02 09:01:28;;;;;;;3.25;0.80;;;16.10;91.20;;;;;;5010378;28;19917;-39
2022/06/02 09:04:10;;;;;;;1.42;0.80;;;16.10;90.70;;;;;;5001668;28;20047;-39
2022/06/02 09:07:07;;;;;;;3.17;0.88;;;16.00;87.70;;;;;;5008881;28;20080;-40
2022/06/02 09:09:57;;;;;;;2.00;0.90;;;16.20;88.90;;;;;;5005810;28;20117;-39
2022/06/02 09:13:07;;;;;;;2.08;0.80;;;16.30;86.50;;;;;;5007074;28;20054;-41
2022/06/02 09:16:00;;;;;;;2.13;0.80;;;16.40;85.60;;;;;;4949544;29;20047;-39
2022/06/02 09:19:03;;;;;;;3.13;1.10;;;16.40;86.00;;;;;;4944671;29;20071;-39
2022/06/02 09:21:44;;;;;;;1.70;0.93;;;16.60;84.30;;;;;;4995391;28;20075;-40
2022/06/02 09:24:32;;;;;;;1.55;0.88;;;16.50;84.40;;;;;;5006179;28;20048;-40
2022/06/02 09:27:21;;;;;;;3.45;0.80;;;16.30;86.10;;;;;;5003250;28;20042;-40
2022/06/02 09:29:54;;;;;;;2.17;0.93;;;16.40;83.60;;;;;;5006719;28;20070;-39
2022/06/02 09:32:39;;;;;;;1.80;0.82;;;16.60;84.50;;;;;;5000530;28;20114;-39
2022/06/02 09:35:11;;;;;;;2.13;0.90;;;16.70;84.20;;;;;;5013704;28;20136;-41
2022/06/02 09:38:06;;;;;;;1.80;0.57;;;16.90;84.90;;;;;;5008795;28;20053;-40
2022/06/02 09:40:51;;;;;;;1.10;0.60;;;17.00;75.30;;;;;;4979634;28;20458;-39
2022/06/02 09:43:36;;;;;;;1.95;0.50;;;17.10;76.80;;;;;;5011523;28;20034;-39
2022/06/02 09:46:21;;;;;;;2.25;0.75;;;17.00;71.80;;;;;;5012099;28;20491;-39
2022/06/02 09:49:13;;;;;;;4.07;0.88;;;17.00;72.90;;;;;;5012145;28;20042;-40
2022/06/02 09:51:51;;;;;;;3.05;0.90;;;17.10;72.30;;;;;;5000507;28;20138;-39
2022/06/02 09:54:47;;;;;;;1.67;0.98;;;17.10;75.80;;;;;;5018718;28;20168;-41
2022/06/02 10:00:25;;;;;;;1.80;0.80;;;17.20;71.70;;;;;;5006448;28;20529;-39
2022/06/02 10:03:09;;;;;;;3.30;0.80;;;17.30;74.60;;;;;;5005130;28;20172;-40
2022/06/02 10:05:44;;;;;;;1.30;0.80;;;17.60;73.40;;;;;;5012347;28;20038;-40
2022/06/02 10:08:35;;;;;;;2.70;0.80;;;17.80;71.10;;;;;;5012433;28;20042;-40
2022/06/02 10:11:24;;;;;;;1.63;0.50;;;17.70;66.70;;;;;;5005594;28;20070;-40
2022/06/02 10:14:15;;;;;;;1.75;0.60;;;17.80;71.10;;;;;;5005984;28;20475;-40
2022/06/02 10:17:19;;;;;;;1.30;0.60;;;17.90;69.30;;;;;;5007467;28;20398;-40
2022/06/02 10:20:28;;;;;;;1.80;0.70;;;17.90;67.60;;;;;;5013181;28;20045;-40
2022/06/02 10:23:03;;;;;;;1.30;0.70;;;18.00;68.50;;;;;;5007548;28;20038;-39
2022/06/02 10:25:49;;;;;;;3.88;0.85;;;18.10;67.90;;;;;;5007826;28;20125;-40
2022/06/02 10:28:40;;;;;;;2.35;0.60;;;18.20;69.00;;;;;;5009412;28;20119;-40
2022/06/02 10:31:53;;;;;;;2.15;0.70;;;18.00;63.60;;;;;;5001627;28;20037;-40
2022/06/02 10:34:53;;;;;;;1.20;0.80;;;18.10;63.30;;;;;;4952847;28;20479;-40
2022/06/02 10:37:53;;;;;;;1.90;0.80;;;18.10;65.40;;;;;;5007858;28;20033;-40
2022/06/02 10:40:44;;;;;;;1.73;0.68;;;18.20;65.20;;;;;;5007834;28;20037;-40
2022/06/02 10:43:47;;;;;;;2.25;0.88;;;18.20;64.60;;;;;;5012175;28;20034;-40
2022/06/02 10:46:50;;;;;;;1.67;0.60;;;18.30;62.10;;;;;;5008540;28;20037;-40
2022/06/02 10:49:30;;;;;;;;;;;18.50;67.40;;;;;;5010756;28;20053;-40
2022/06/02 10:52:15;;;;;;;2.83;0.70;;;18.60;66.90;;;;;;4998827;28;19917;-40
2022/06/02 10:55:07;;;;;;;1.63;0.60;;;18.60;67.60;;;;;;5006205;28;20048;-40
2022/06/02 10:57:57;;;;;;;2.85;0.70;;;18.50;64.30;;;;;;4993901;28;20058;-40
2022/06/02 11:00:44;;;;;;;2.58;0.60;;;18.20;65.40;;;;;;5007152;28;20514;-40
2022/06/02 11:03:31;;;;;;;1.20;0.60;;;18.30;66.20;;;;;;5012164;28;20125;-40
2022/06/02 11:06:15;;;;;;;1.15;0.60;;;18.30;63.60;;;;;;5003171;28;20455;-40
2022/06/02 11:09:16;;;;;;;1.33;0.50;;;18.30;64.10;;;;;;5010262;28;20053;-40
2022/06/02 11:12:17;;;;;;;1.38;0.55;;;18.40;62.10;;;;;;5005763;28;20057;-39
2022/06/02 11:14:58;;;;;;;2.40;0.70;;;18.50;62.40;;;;;;5009805;28;20100;-40
2022/06/02 11:17:38;;;;;;;2.47;0.60;;;18.60;62.30;;;;;;5012223;28;20129;-41
2022/06/02 11:20:26;;;;;;;1.63;0.52;;;18.80;63.10;;;;;;5004829;28;20060;-41
2022/06/02 11:23:31;;;;;;;2.20;0.60;;;18.90;59.80;;;;;;5006908;28;20034;-44
2022/06/02 11:26:22;;;;;;;3.20;0.70;;;19.10;61.20;;;;;;5006883;28;20054;-40
2022/06/02 11:29:19;;;;;;;1.37;0.70;;;19.10;63.80;;;;;;5006672;28;20399;-40
2022/06/02 11:31:51;;;;;;;1.55;0.77;;;19.00;62.40;;;;;;5010375;28;20155;-42
2022/06/02 11:34:33;;;;;;;1.20;0.70;;;19.10;63.40;;;;;;5001644;28;20049;-41
2022/06/02 11:37:08;;;;;;;1.83;0.70;;;19.30;61.60;;;;;;5011270;28;20374;-41
2022/06/02 11:39:33;;;;;;;1.92;0.77;;;19.50;63.10;;;;;;5010265;28;20108;-41
2022/06/02 11:42:20;;;;;;;0.98;0.55;;;19.60;62.80;;;;;;5011484;28;20041;-40
2022/06/02 11:45:15;;;;;;;1.58;0.80;;;19.60;62.00;;;;;;5010125;28;20523;-41
2022/06/02 11:48:12;;;;;;;1.52;0.70;;;19.50;62.90;;;;;;5010301;28;20407;-41
2022/06/02 11:51:15;;;;;;;1.42;0.80;;;19.40;62.50;;;;;;5011264;28;20430;-40
2022/06/02 11:54:08;;;;;;;1.13;0.68;;;19.50;59.30;;;;;;5011271;28;20100;-41
2022/06/02 11:56:36;;;;;;;;;;;19.30;62.60;;;;;;5011130;28;20045;-42
2022/06/02 11:59:38;;;;;;;3.30;0.88;;;19.30;61.30;;;;;;5010118;28;20337;-46
2022/06/02 12:02:09;;;;;;;0.73;0.60;;;19.60;63.90;;;;;;4999921;28;20034;-41
2022/06/02 12:05:12;;;;;;;1.02;0.60;;;19.80;60.50;;;;;;5006990;28;20117;-40
2022/06/02 12:07:47;;;;;;;;;;;19.90;60.00;;;;;;5006863;28;20038;-40
2022/06/02 12:10:30;;;;;;;1.65;0.68;;;20.00;60.50;;;;;;5004376;28;20402;-40
2022/06/02 12:13:06;;;;;;;;;;;20.10;60.70;;;;;;5006059;28;20058;-40
2022/06/02 12:15:57;;;;;;;1.27;0.88;;;20.10;61.70;;;;;;5008642;28;19922;-41
2022/06/02 12:18:38;;;;;;;1.27;0.70;;;19.90;62.20;;;;;;5006546;28;20125;-40
2022/06/02 12:21:31;;;;;;;1.95;0.82;;;19.70;63.00;;;;;;5008005;28;20046;-40
2022/06/02 12:24:34;;;;;;;2.47;0.82;;;19.60;64.20;;;;;;5001583;28;20442;-43
2022/06/02 12:27:09;;;;;;;0.93;0.70;;;19.70;63.10;;;;;;5003577;28;20466;-40
2022/06/02 12:30:05;;;;;;;2.20;0.80;;;19.80;60.30;;;;;;5018610;28;20557;-43
2022/06/02 12:32:49;;;;;;;1.58;0.60;;;20.00;61.20;;;;;;5010623;28;20046;-40
2022/06/02 12:35:42;;;;;;;2.10;0.90;;;19.90;58.50;;;;;;5010701;28;20376;-43
2022/06/02 12:38:20;;;;;;;1.80;0.65;;;19.80;60.60;;;;;;5010859;28;20129;-42
2022/06/02 12:41:10;;;;;;;2.17;0.70;;;19.60;62.20;;;;;;4992739;28;20126;-41
2022/06/02 12:43:58;;;;;;;3.08;1.20;;;19.60;61.80;;;;;;5015378;28;20137;-44
2022/06/02 12:46:44;;;;;;;1.45;0.90;;;19.60;62.20;;;;;;5001003;28;20042;-41
2022/06/02 12:49:25;;;;;;;0.90;0.63;;;19.70;61.30;;;;;;5003508;28;20034;-40
2022/06/02 12:52:12;;;;;;;1.45;0.80;;;19.90;61.80;;;;;;5002555;28;20042;-42
2022/06/02 12:55:18;;;;;;;2.15;0.90;;;20.10;59.70;;;;;;4999711;28;20075;-40
2022/06/02 12:58:15;;;;;;;1.80;0.85;;;20.00;56.20;;;;;;5005033;28;20523;-42
2022/06/02 13:01:08;;;;;;;1.42;0.80;;;19.80;59.50;;;;;;5006738;28;20518;-42
2022/06/02 13:03:52;;;;;;;;;;;20.00;61.50;;;;;;5005595;28;20084;-40
2022/06/02 13:06:48;;;;;;;1.35;0.73;;;20.20;58.30;;;;;;5004763;28;20386;-40
2022/06/02 13:09:42;;;;;;;1.30;0.70;;;20.40;58.90;;;;;;5011590;28;20065;-40
2022/06/02 13:12:32;;;;;;;2.03;0.90;;;20.60;55.90;;;;;;5007519;28;20147;-42
2022/06/02 13:14:58;;;;;;;1.08;0.70;;;20.80;55.60;;;;;;5004139;28;20529;-40
2022/06/02 13:17:48;;;;;;;1.60;0.70;;;20.90;55.20;;;;;;4991712;28;20042;-43
2022/06/02 13:20:29;;;;;;;1.20;0.70;;;21.30;54.50;;;;;;5006126;28;20120;-43
2022/06/02 13:23:04;;;;;;;1.65;0.75;;;21.60;53.50;;;;;;5006775;28;20390;-40
2022/06/02 13:26:02;;;;;;;2.20;0.70;;;21.90;53.20;;;;;;5007295;28;20084;-44
2022/06/02 13:28:45;;;;;;;0.98;0.63;;;22.00;52.00;;;;;;4963953;28;20042;-42
2022/06/02 13:31:48;;;;;;;2.85;0.70;;;22.20;51.50;;;;;;5010669;28;20184;-40
2022/06/02 13:34:56;;;;;;;1.25;0.82;;;22.00;49.90;;;;;;5014643;28;20385;-39
2022/06/02 13:37:53;;;;;;;0.80;0.50;;;22.20;50.70;;;;;;4999526;28;20498;-41
2022/06/02 13:40:41;;;;;;;1.83;0.60;;;22.50;50.60;;;;;;5001132;28;20038;-40
2022/06/02 13:43:07;;;;;;;1.95;0.70;;;22.90;49.70;;;;;;5009456;28;20066;-41
2022/06/02 13:46:10;;;;;;;1.92;0.60;;;23.10;49.00;;;;;;5011746;28;20076;-39
2022/06/02 13:48:45;;;;;;;1.15;0.68;;;23.30;46.00;;;;;;5005489;28;20448;-40
2022/06/02 13:51:32;;;;;;;1.50;0.63;;;23.10;47.80;;;;;;5011366;28;20115;-42
2022/06/02 13:57:30;;;;;;;1.73;0.70;;;22.00;48.70;;;;;;5004339;28;20042;-40
2022/06/02 14:00:11;;;;;;;0.60;0.40;;;21.80;50.00;;;;;;5001252;28;20034;-40
2022/06/02 14:03:06;;;;;;;0.70;0.50;;;21.90;50.20;;;;;;4995368;28;20088;-41
2022/06/02 14:06:09;;;;;;;1.52;0.50;;;22.40;46.90;;;;;;5011177;28;20033;-41
2022/06/02 14:09:14;;;;;;;0.85;0.50;;;23.20;46.00;;;;;;5008104;28;20052;-40
2022/06/02 14:11:56;;;;;;;1.63;0.57;;;23.70;45.70;;;;;;4974479;28;20053;-40
2022/06/02 14:14:43;;;;;;;1.83;0.50;;;24.10;44.50;;;;;;5010675;28;20471;-41
2022/06/02 14:17:40;;;;;;;2.00;0.60;;;24.70;43.40;;;;;;5010320;28;20089;-40
2022/06/02 14:20:21;;;;;;;1.73;0.60;;;25.00;42.00;;;;;;5008408;28;20038;-40
2022/06/02 14:22:59;;;;;;;0.60;0.40;;;24.60;42.70;;;;;;5009776;28;20181;-40
2022/06/02 14:25:31;;;;;;;1.42;0.50;;;23.90;44.70;;;;;;4995517;28;20045;-40
2022/06/02 14:28:34;;;;;;;2.53;0.75;;;23.30;45.80;;;;;;5001002;28;20507;-40
2022/06/02 14:31:45;;;;;;;1.05;0.50;;;22.90;46.60;;;;;;5003637;28;20048;-40
2022/06/02 14:34:36;;;;;;;1.88;0.70;;;23.50;46.30;;;;;;4972805;28;20050;-40
2022/06/02 14:37:12;;;;;;;1.85;0.50;;;24.10;44.60;;;;;;5010935;28;20176;-40
2022/06/02 14:40:19;;;;;;;1.48;0.60;;;24.40;44.00;;;;;;5007271;28;20042;-41
2022/06/02 14:43:05;;;;;;;0.80;0.40;;;24.50;43.30;;;;;;4992936;28;20145;-41
2022/06/02 14:45:49;;;;;;;1.40;0.50;;;24.40;43.80;;;;;;5000338;28;20545;-42
2022/06/02 14:48:29;;;;;;;1.90;0.40;;;24.40;44.80;;;;;;5005243;28;20042;-41